createdAt,value
2022-12-13T00:01:13.207Z,53.35
2022-12-13T00:06:16.591Z,53.30
2022-12-13T00:11:18.537Z,53.16
2022-12-13T00:16:22.714Z,53.05
2022-12-13T00:21:27.106Z,53.45
2022-12-13T00:26:29.899Z,52.45
2022-12-13T00:36:55.419Z,53.03
2022-12-13T00:41:57.306Z,52.65
2022-12-13T00:46:59.739Z,53.20
2022-12-13T00:52:03.022Z,52.89
2022-12-13T00:57:05.012Z,53.09
2022-12-13T01:02:06.821Z,53.21
2022-12-13T01:07:09.975Z,53.17
2022-12-13T01:12:11.907Z,52.77
2022-12-13T01:17:13.815Z,53.61
2022-12-13T01:22:17.044Z,52.89
2022-12-13T01:27:18.980Z,52.45
2022-12-13T01:32:20.762Z,52.00
2022-12-13T01:37:26.009Z,51.92
2022-12-13T01:42:28.137Z,52.25
2022-12-13T01:47:31.948Z,51.59
2022-12-13T01:52:35.157Z,52.59
2022-12-13T01:57:40.762Z,52.33
2022-12-13T02:02:45.699Z,52.85
2022-12-13T02:07:48.899Z,52.85
2022-12-13T02:12:50.732Z,51.89
2022-12-13T02:17:58.327Z,51.45
2022-12-13T02:23:12.979Z,51.97
2022-12-13T02:28:31.312Z,51.53
2022-12-13T02:33:40.251Z,51.97
2022-12-13T02:38:46.134Z,51.89
2022-12-13T02:43:49.284Z,51.85
2022-12-13T02:48:53.066Z,51.96
2022-12-13T02:53:54.925Z,51.25
2022-12-13T02:58:56.780Z,50.80
2022-12-13T03:04:05.603Z,50.72
2022-12-13T03:09:17.993Z,50.05
2022-12-13T03:14:20.075Z,50.52
2022-12-13T03:19:23.197Z,50.82
2022-12-13T03:24:24.979Z,50.88
2022-12-13T03:29:26.816Z,50.87
2022-12-13T03:34:44.910Z,50.77
2022-12-13T03:39:47.994Z,51.31
2022-12-13T03:44:49.865Z,52.16
2022-12-13T03:49:54.362Z,52.26
2022-12-13T03:54:56.483Z,51.42
2022-12-13T03:59:58.385Z,50.66
2022-12-13T04:05:01.667Z,51.27
2022-12-13T04:10:03.751Z,51.26
2022-12-13T04:15:25.784Z,50.38
2022-12-13T04:20:29.013Z,50.29
2022-12-13T04:25:30.998Z,49.95
2022-12-13T04:30:32.985Z,51.39
2022-12-13T04:35:36.098Z,51.43
2022-12-13T04:40:37.980Z,52.53
2022-12-13T04:45:39.792Z,52.89
2022-12-13T04:50:42.986Z,52.06
2022-12-13T04:55:44.812Z,51.18
2022-12-13T05:00:46.640Z,51.22
2022-12-13T05:05:49.765Z,51.39
2022-12-13T05:10:51.589Z,51.83
2022-12-13T05:15:56.640Z,51.77
2022-12-13T05:21:03.081Z,51.36
2022-12-13T05:26:05.051Z,51.81
2022-12-13T05:31:23.048Z,51.22
2022-12-13T05:36:27.121Z,51.26
2022-12-13T05:41:29.526Z,50.75
2022-12-13T05:46:31.613Z,51.22
2022-12-13T05:51:36.623Z,50.15
2022-12-13T05:56:38.379Z,50.30
2022-12-13T06:01:43.607Z,50.35
2022-12-13T06:06:47.259Z,50.52
2022-12-13T06:12:00.903Z,50.29
2022-12-13T06:17:03.325Z,50.10
2022-12-13T06:22:06.502Z,49.99
2022-12-13T06:27:08.252Z,49.45
2022-12-13T06:32:10.479Z,50.15
2022-12-13T06:37:13.822Z,49.62
2022-12-13T06:42:21.767Z,49.69
2022-12-13T06:47:31.937Z,50.66
2022-12-13T06:52:35.726Z,50.89
2022-12-13T06:57:37.508Z,50.12
2022-12-13T07:02:42.791Z,50.31
2022-12-13T07:07:46.101Z,50.10
2022-12-13T07:12:47.983Z,50.83
2022-12-13T07:17:50.367Z,51.56
2022-12-13T07:22:58.858Z,51.67
2022-12-13T07:28:02.898Z,51.74
2022-12-13T07:33:05.238Z,51.65
2022-12-13T07:38:08.459Z,50.81
2022-12-13T07:43:11.836Z,51.00
2022-12-13T07:48:13.617Z,51.15
2022-12-13T07:53:17.010Z,51.52
2022-12-13T07:58:18.902Z,51.97
2022-12-13T08:03:25.559Z,51.56
2022-12-13T08:08:30.973Z,51.02
2022-12-13T08:13:33.833Z,50.27
2022-12-13T08:18:35.999Z,49.83
2022-12-13T08:23:39.086Z,50.52
2022-12-13T08:28:40.806Z,49.56
2022-12-13T08:33:45.533Z,48.82
2022-12-13T08:38:48.648Z,49.48
2022-12-13T08:43:50.787Z,48.21
2022-12-13T08:48:53.231Z,44.83
2022-12-13T08:54:10.668Z,40.44
2022-12-13T08:59:13.225Z,37.15
2022-12-13T09:04:18.026Z,35.45
2022-12-13T09:09:34.963Z,34.45
2022-12-13T09:14:45.053Z,32.68
2022-12-13T09:19:47.281Z,31.20
2022-12-13T09:24:50.465Z,30.73
2022-12-13T09:29:52.199Z,30.98
2022-12-13T09:34:54.024Z,30.68
2022-12-13T09:39:57.250Z,29.25
2022-12-13T09:45:03.236Z,28.57
2022-12-13T09:50:06.446Z,30.03
2022-12-13T09:55:18.959Z,33.97
2022-12-13T10:00:21.817Z,35.87
2022-12-13T10:05:34.287Z,37.61
2022-12-13T10:10:42.215Z,39.23
2022-12-13T10:15:47.427Z,40.87
2022-12-13T10:20:49.171Z,41.79
2022-12-13T10:25:55.022Z,42.94
2022-12-13T10:31:05.604Z,43.57
2022-12-13T10:36:09.614Z,43.75
2022-12-13T10:41:27.566Z,44.83
2022-12-13T10:46:31.115Z,44.65
2022-12-13T10:51:40.265Z,45.18
2022-12-13T10:56:45.632Z,46.82
2022-12-13T11:01:47.403Z,46.83
2022-12-13T11:06:49.180Z,47.42
2022-12-13T11:11:59.059Z,47.86
2022-12-13T11:17:06.492Z,48.06
2022-12-13T11:22:08.762Z,48.15
2022-12-13T11:27:24.408Z,48.89
2022-12-13T11:32:33.338Z,49.04
2022-12-13T11:37:39.177Z,49.31
2022-12-13T11:42:44.040Z,49.03
2022-12-13T11:47:49.983Z,49.30
2022-12-13T11:53:01.671Z,49.61
2022-12-13T11:58:07.299Z,48.93
2022-12-13T12:03:17.747Z,48.80
2022-12-13T12:08:32.415Z,48.45
2022-12-13T12:13:50.800Z,48.28
2022-12-13T12:19:01.518Z,47.29
2022-12-13T12:24:15.932Z,47.79
2022-12-13T12:29:50.649Z,46.99
2022-12-13T12:34:55.937Z,45.97
2022-12-13T12:40:15.374Z,45.87
2022-12-13T12:45:55.212Z,45.64
2022-12-13T12:50:50.865Z,45.15
2022-12-13T12:56:00.826Z,45.21
2022-12-13T13:01:13.238Z,45.07
2022-12-13T13:06:16.692Z,44.62
2022-12-13T13:11:24.362Z,44.74
2022-12-13T13:16:34.295Z,44.89
2022-12-13T13:21:46.344Z,44.64
2022-12-13T13:26:49.693Z,44.61
2022-12-13T13:32:01.135Z,44.91
2022-12-13T13:37:27.247Z,45.24
2022-12-13T13:42:29.381Z,45.15
2022-12-13T13:47:38.970Z,45.43
2022-12-13T13:52:45.987Z,45.47
2022-12-13T13:58:29.959Z,45.92
2022-12-13T14:03:58.032Z,46.43
2022-12-13T14:09:21.854Z,46.55
2022-12-13T14:14:51.536Z,47.11
2022-12-13T14:20:23.544Z,47.58
2022-12-13T14:25:42.273Z,47.95
2022-12-13T14:30:48.312Z,48.57
2022-12-13T14:36:01.710Z,49.33
2022-12-13T14:41:03.682Z,48.66
2022-12-13T14:46:06.475Z,48.29
2022-12-13T14:51:29.661Z,48.58
2022-12-13T14:56:31.410Z,48.80
2022-12-13T15:01:34.157Z,49.66
2022-12-13T15:06:37.243Z,49.66
2022-12-13T15:11:39.134Z,49.21
2022-12-13T15:16:41.065Z,49.40
2022-12-13T15:21:58.618Z,49.67
